Aérodrome :
LOGIN :

S'inscrire | Disclaimer

   EN    FR    IT 

 










Légende :    VFR   VFR Marginal   IFR   IFR Intensif   IFR Très Intensif
Visi : 
Plafond : 
>= 8 km
>= 3000ft
5 à 8 km
1000 à 3000 ft
1500m à 5 km
500 à 1000 ft
800 à 1500m
200 à 500 ft
< 800m
< 200 ft
Symboles :   Orages  Brouillard  Fortes neiges  Fortes précipitations  Vent > 20 kt
SIGMETs :   Divers  Orages  Givrage  Turbulence  Onde Orograph.  Cendres Volcan.







- Altitude de l'aérodrome : 74 ft
- Code IATA : MRS
- Voir les cartes d'approche


LFML - Marseille / Marignane

DERNIER METAR :
  • 292100Z AUTO 12004KT CAVOK 12/07 Q1015 NOSIG

METARs EXPIRÉS :
  • 292030Z AUTO 15007KT CAVOK 13/08 Q1014 NOSIG
  • 292000Z AUTO 13008KT CAVOK 13/07 Q1014 NOSIG
  • 291930Z AUTO 14004KT CAVOK 13/07 Q1014 NOSIG
  • 291900Z AUTO 15006KT 110V180 CAVOK 14/07 Q1014 NOSIG
  • 291830Z AUTO 16011KT CAVOK 14/07 Q1014 NOSIG

TAF TAF LFML
Valide du 29 à 21h jusqu'au 01 à 03h UTC


292000Z 2921/0103 13008KT CAVOK
TEMPO 3000/3006 09007KT
BECMG 3009/3012 15015G25KT
BECMG 3018/3020 BKN018
TEMPO 3021/0103 4000 RA
PROB30
TEMPO 0100/0103 VRB20G35KT 2000 TSRA SCT018CB TX18/3014Z TN09/3005Z
ATIS : +33 4 42 31 15 15
Pas de NOTAMs connus pour ce terrain.
1 SIGMET publié pour la FIR Marseille (LFMM) :
 
Turbulence forte
LFMM SIGMET 1 VALID 300000/300400 LFPW
LFMM MARSEILLE FIR/UIR SEV TURB FCST WI N4315 E00230 - N4430 E00245 - N4530 E00430 - N4530 E00500 SFC/FL060 STNR INTSF=



MET'MAP, la Météo Aéronautique d'un coup d'oeil ! - Copyright ORBIFLY Décembre 2007 - Disclaimer

ORBIFLY MET'MAP TEAM :

Programmation & Développement : Alexandra Zaïnal
Conception & Développement : Baudouin d'Aumeries
Co-Programmation & Développement : Marc-Olivier Méhu
Soutien technique & logistique : Manuel Goepfert

Contact : metmap@orbifly.com




SOURCES & CREDITS :

   NOAA